sensor_id;sensor_type;location;lat;lon;timestamp;P1;durP1;ratioP1;P2;durP2;ratioP2
76332;SDS011;71254;53.010;6.508;2023-12-04T10:52:08;11.60;;;8.02;;
76332;SDS011;71254;53.010;6.508;2023-12-04T10:54:34;14.50;;;9.32;;
76332;SDS011;71254;53.010;6.508;2023-12-04T10:57:01;12.35;;;8.88;;
76332;SDS011;71254;53.010;6.508;2023-12-04T10:59:28;12.68;;;8.77;;
76332;SDS011;71254;53.010;6.508;2023-12-04T11:02:01;12.85;;;8.77;;
76332;SDS011;71254;53.010;6.508;2023-12-04T11:04:31;11.85;;;8.27;;
76332;SDS011;71254;53.010;6.508;2023-12-04T11:07:01;12.27;;;8.18;;
76332;SDS011;71254;53.010;6.508;2023-12-04T11:09:29;11.60;;;8.50;;
76332;SDS011;71254;53.010;6.508;2023-12-04T11:11:57;12.82;;;8.50;;
76332;SDS011;71254;53.010;6.508;2023-12-04T11:14:28;13.60;;;9.00;;
76332;SDS011;71254;53.010;6.508;2023-12-04T11:17:01;11.35;;;8.45;;
76332;SDS011;71254;53.010;6.508;2023-12-04T11:19:35;11.73;;;8.15;;
76332;SDS011;71254;53.010;6.508;2023-12-04T11:22:08;14.13;;;8.73;;
76332;SDS011;71254;53.010;6.508;2023-12-04T11:24:35;17.48;;;10.90;;
76332;SDS011;71254;53.010;6.508;2023-12-04T11:27:01;14.45;;;9.40;;
76332;SDS011;71254;53.010;6.508;2023-12-04T11:29:28;12.05;;;9.13;;
76332;SDS011;71254;53.010;6.508;2023-12-04T11:31:55;13.35;;;8.95;;
76332;SDS011;71254;53.010;6.508;2023-12-04T11:34:31;10.88;;;8.10;;
76332;SDS011;71254;53.010;6.508;2023-12-04T11:36:56;11.70;;;8.55;;
76332;SDS011;71254;53.010;6.508;2023-12-04T11:39:25;12.38;;;8.43;;
76332;SDS011;71254;53.010;6.508;2023-12-04T11:41:50;11.85;;;8.57;;
76332;SDS011;71254;53.010;6.508;2023-12-04T11:44:18;11.20;;;8.23;;
76332;SDS011;71254;53.010;6.508;2023-12-04T11:46:56;11.52;;;8.30;;
76332;SDS011;71254;53.010;6.508;2023-12-04T11:49:30;10.65;;;7.85;;
76332;SDS011;71254;53.010;6.508;2023-12-04T11:51:57;8.77;;;7.13;;
76332;SDS011;71254;53.010;6.508;2023-12-04T11:54:25;10.60;;;6.90;;
76332;SDS011;71254;53.010;6.508;2023-12-04T11:57:04;9.88;;;7.00;;
76332;SDS011;71254;53.010;6.508;2023-12-04T11:59:43;9.38;;;7.65;;
76332;SDS011;71254;53.010;6.508;2023-12-04T12:02:10;10.93;;;7.45;;
76332;SDS011;71254;53.010;6.508;2023-12-04T12:04:36;9.57;;;7.47;;
76332;SDS011;71254;53.010;6.508;2023-12-04T12:07:04;9.70;;;7.53;;
76332;SDS011;71254;53.010;6.508;2023-12-04T12:09:30;10.50;;;7.32;;
76332;SDS011;71254;53.010;6.508;2023-12-04T12:11:59;9.38;;;7.47;;
76332;SDS011;71254;53.010;6.508;2023-12-04T12:14:26;10.35;;;7.40;;
76332;SDS011;71254;53.010;6.508;2023-12-04T12:16:54;8.95;;;7.10;;
76332;SDS011;71254;53.010;6.508;2023-12-04T12:19:20;9.30;;;6.95;;
76332;SDS011;71254;53.010;6.508;2023-12-04T12:21:47;8.82;;;7.00;;
76332;SDS011;71254;53.010;6.508;2023-12-04T12:24:14;9.35;;;7.05;;
76332;SDS011;71254;53.010;6.508;2023-12-04T12:26:39;9.65;;;6.80;;
76332;SDS011;71254;53.010;6.508;2023-12-04T12:29:05;9.40;;;7.10;;
76332;SDS011;71254;53.010;6.508;2023-12-04T12:31:31;10.75;;;7.78;;
76332;SDS011;71254;53.010;6.508;2023-12-04T12:33:57;9.77;;;7.30;;
76332;SDS011;71254;53.010;6.508;2023-12-04T12:36:24;9.15;;;7.38;;
76332;SDS011;71254;53.010;6.508;2023-12-04T12:38:50;12.10;;;8.13;;
76332;SDS011;71254;53.010;6.508;2023-12-04T12:41:16;11.30;;;7.32;;
76332;SDS011;71254;53.010;6.508;2023-12-04T12:43:42;8.52;;;7.05;;
76332;SDS011;71254;53.010;6.508;2023-12-04T12:46:08;9.15;;;7.00;;
76332;SDS011;71254;53.010;6.508;2023-12-04T12:48:35;9.13;;;7.07;;
76332;SDS011;71254;53.010;6.508;2023-12-04T12:51:04;13.98;;;7.75;;
76332;SDS011;71254;53.010;6.508;2023-12-04T12:53:34;10.88;;;7.65;;
76332;SDS011;71254;53.010;6.508;2023-12-04T12:56:00;10.13;;;7.38;;
76332;SDS011;71254;53.010;6.508;2023-12-04T12:58:26;9.90;;;6.65;;
76332;SDS011;71254;53.010;6.508;2023-12-04T13:00:52;9.82;;;6.55;;
76332;SDS011;71254;53.010;6.508;2023-12-04T13:03:18;9.75;;;7.25;;
76332;SDS011;71254;53.010;6.508;2023-12-04T13:05:45;9.50;;;6.60;;
76332;SDS011;71254;53.010;6.508;2023-12-04T13:08:11;9.82;;;7.28;;
76332;SDS011;71254;53.010;6.508;2023-12-04T13:10:37;10.55;;;6.93;;
76332;SDS011;71254;53.010;6.508;2023-12-04T13:13:03;9.18;;;6.90;;
76332;SDS011;71254;53.010;6.508;2023-12-04T13:15:29;9.65;;;7.30;;
76332;SDS011;71254;53.010;6.508;2023-12-04T13:17:54;10.57;;;7.57;;
76332;SDS011;71254;53.010;6.508;2023-12-04T13:20:21;9.35;;;7.03;;
76332;SDS011;71254;53.010;6.508;2023-12-04T13:22:48;12.48;;;8.10;;
76332;SDS011;71254;53.010;6.508;2023-12-04T13:25:14;11.05;;;7.53;;
76332;SDS011;71254;53.010;6.508;2023-12-04T13:27:40;11.43;;;7.28;;
76332;SDS011;71254;53.010;6.508;2023-12-04T13:30:06;11.75;;;7.40;;
76332;SDS011;71254;53.010;6.508;2023-12-04T13:32:38;11.32;;;7.95;;
76332;SDS011;71254;53.010;6.508;2023-12-04T13:35:05;10.57;;;7.45;;
76332;SDS011;71254;53.010;6.508;2023-12-04T13:37:33;10.35;;;7.43;;
76332;SDS011;71254;53.010;6.508;2023-12-04T13:40:06;11.45;;;7.03;;
76332;SDS011;71254;53.010;6.508;2023-12-04T13:42:33;10.93;;;7.95;;
76332;SDS011;71254;53.010;6.508;2023-12-04T13:45:18;12.60;;;8.05;;
76332;SDS011;71254;53.010;6.508;2023-12-04T13:47:47;8.77;;;7.00;;
76332;SDS011;71254;53.010;6.508;2023-12-04T13:50:12;10.82;;;8.35;;
76332;SDS011;71254;53.010;6.508;2023-12-04T13:52:38;10.63;;;7.72;;
76332;SDS011;71254;53.010;6.508;2023-12-04T13:55:04;11.57;;;8.38;;
76332;SDS011;71254;53.010;6.508;2023-12-04T13:57:40;9.20;;;7.68;;
76332;SDS011;71254;53.010;6.508;2023-12-04T14:00:30;11.07;;;7.75;;
76332;SDS011;71254;53.010;6.508;2023-12-04T14:02:56;10.85;;;7.95;;
76332;SDS011;71254;53.010;6.508;2023-12-04T14:05:29;10.77;;;7.50;;
76332;SDS011;71254;53.010;6.508;2023-12-04T14:07:55;12.52;;;8.77;;
76332;SDS011;71254;53.010;6.508;2023-12-04T14:10:23;12.18;;;8.55;;
76332;SDS011;71254;53.010;6.508;2023-12-04T14:12:54;10.55;;;8.15;;
76332;SDS011;71254;53.010;6.508;2023-12-04T14:15:20;11.27;;;8.38;;
76332;SDS011;71254;53.010;6.508;2023-12-04T14:17:46;11.52;;;8.10;;
76332;SDS011;71254;53.010;6.508;2023-12-04T14:20:11;12.15;;;8.02;;
76332;SDS011;71254;53.010;6.508;2023-12-04T14:22:41;9.82;;;7.38;;
76332;SDS011;71254;53.010;6.508;2023-12-04T14:25:08;10.90;;;8.07;;
76332;SDS011;71254;53.010;6.508;2023-12-04T14:27:34;12.50;;;8.30;;
76332;SDS011;71254;53.010;6.508;2023-12-04T14:30:08;12.05;;;8.90;;
76332;SDS011;71254;53.010;6.508;2023-12-04T14:32:34;12.35;;;8.85;;
76332;SDS011;71254;53.010;6.508;2023-12-04T14:35:01;12.73;;;8.63;;
76332;SDS011;71254;53.010;6.508;2023-12-04T14:37:30;10.52;;;8.00;;
76332;SDS011;71254;53.010;6.508;2023-12-04T14:39:56;10.57;;;8.80;;
76332;SDS011;71254;53.010;6.508;2023-12-04T14:42:22;13.70;;;9.07;;
76332;SDS011;71254;53.010;6.508;2023-12-04T14:44:47;11.85;;;8.00;;
76332;SDS011;71254;53.010;6.508;2023-12-04T14:47:13;13.07;;;8.52;;
76332;SDS011;71254;53.010;6.508;2023-12-04T14:49:41;11.50;;;8.30;;
76332;SDS011;71254;53.010;6.508;2023-12-04T14:52:07;12.60;;;9.23;;
76332;SDS011;71254;53.010;6.508;2023-12-04T14:54:33;12.20;;;9.38;;
76332;SDS011;71254;53.010;6.508;2023-12-04T14:57:32;12.85;;;9.48;;
76332;SDS011;71254;53.010;6.508;2023-12-04T15:00:09;13.48;;;10.07;;
76332;SDS011;71254;53.010;6.508;2023-12-04T15:02:57;13.65;;;10.60;;
76332;SDS011;71254;53.010;6.508;2023-12-04T15:05:35;11.77;;;10.57;;
76332;SDS011;71254;53.010;6.508;2023-12-04T15:08:19;11.15;;;8.73;;
76332;SDS011;71254;53.010;6.508;2023-12-04T15:10:50;11.68;;;8.77;;
76332;SDS011;71254;53.010;6.508;2023-12-04T15:13:35;12.75;;;10.35;;
76332;SDS011;71254;53.010;6.508;2023-12-04T15:16:20;12.88;;;9.15;;
76332;SDS011;71254;53.010;6.508;2023-12-04T15:18:59;10.75;;;8.20;;
76332;SDS011;71254;53.010;6.508;2023-12-04T15:21:44;12.27;;;9.73;;
76332;SDS011;71254;53.010;6.508;2023-12-04T15:24:10;12.10;;;8.95;;
76332;SDS011;71254;53.010;6.508;2023-12-04T15:26:36;11.60;;;8.32;;
76332;SDS011;71254;53.010;6.508;2023-12-04T15:29:01;12.57;;;8.43;;
76332;SDS011;71254;53.010;6.508;2023-12-04T15:31:29;11.68;;;9.10;;
76332;SDS011;71254;53.010;6.508;2023-12-04T15:33:55;14.57;;;9.60;;
76332;SDS011;71254;53.010;6.508;2023-12-04T15:36:21;12.02;;;10.02;;
76332;SDS011;71254;53.010;6.508;2023-12-04T15:38:47;12.20;;;9.13;;
76332;SDS011;71254;53.010;6.508;2023-12-04T15:41:13;10.93;;;7.28;;
76332;SDS011;71254;53.010;6.508;2023-12-04T15:43:39;12.00;;;8.85;;
76332;SDS011;71254;53.010;6.508;2023-12-04T15:46:04;9.93;;;8.27;;
76332;SDS011;71254;53.010;6.508;2023-12-04T15:48:31;13.52;;;8.45;;
76332;SDS011;71254;53.010;6.508;2023-12-04T15:51:00;10.50;;;8.85;;
76332;SDS011;71254;53.010;6.508;2023-12-04T15:53:26;11.23;;;8.52;;
76332;SDS011;71254;53.010;6.508;2023-12-04T15:55:51;11.95;;;8.82;;
76332;SDS011;71254;53.010;6.508;2023-12-04T15:58:17;14.35;;;9.43;;
76332;SDS011;71254;53.010;6.508;2023-12-04T16:00:42;13.68;;;8.90;;
76332;SDS011;71254;53.010;6.508;2023-12-04T16:03:08;11.68;;;8.90;;
76332;SDS011;71254;53.010;6.508;2023-12-04T16:05:34;14.00;;;9.20;;
76332;SDS011;71254;53.010;6.508;2023-12-04T16:08:00;12.80;;;9.35;;
76332;SDS011;71254;53.010;6.508;2023-12-04T16:10:25;12.82;;;9.45;;
76332;SDS011;71254;53.010;6.508;2023-12-04T16:12:53;13.23;;;9.82;;
76332;SDS011;71254;53.010;6.508;2023-12-04T16:15:19;13.35;;;10.10;;
76332;SDS011;71254;53.010;6.508;2023-12-04T16:17:50;12.60;;;9.02;;
76332;SDS011;71254;53.010;6.508;2023-12-04T16:20:16;13.02;;;9.13;;
76332;SDS011;71254;53.010;6.508;2023-12-04T16:22:41;13.85;;;9.93;;
76332;SDS011;71254;53.010;6.508;2023-12-04T16:25:08;15.90;;;10.43;;
76332;SDS011;71254;53.010;6.508;2023-12-04T16:27:34;12.20;;;9.27;;
76332;SDS011;71254;53.010;6.508;2023-12-04T16:30:00;16.60;;;11.20;;
76332;SDS011;71254;53.010;6.508;2023-12-04T16:32:26;14.02;;;11.02;;
76332;SDS011;71254;53.010;6.508;2023-12-04T16:34:52;15.60;;;11.63;;
